createdAt,value
2022-08-22T00:01:55.574Z,3.30
2022-08-22T00:02:47.891Z,3.78
2022-08-22T00:02:57.619Z,2.00
2022-08-22T00:03:15.001Z,1.70
2022-08-22T00:04:35.096Z,3.08
2022-08-22T00:07:13.827Z,3.53
2022-08-22T00:09:54.100Z,3.20
2022-08-22T00:12:31.639Z,3.50
2022-08-22T00:15:08.120Z,3.58
2022-08-22T00:17:56.975Z,2.72
2022-08-22T00:20:34.356Z,3.13
2022-08-22T00:23:13.185Z,3.15
2022-08-22T00:25:57.121Z,2.88
2022-08-22T00:28:34.943Z,3.25
2022-08-22T00:31:16.833Z,3.13
2022-08-22T00:33:51.387Z,2.97
2022-08-22T00:36:27.033Z,2.65
2022-08-22T00:39:07.176Z,2.78
2022-08-22T00:41:57.531Z,2.80
2022-08-22T00:45:04.066Z,2.80
2022-08-22T00:47:57.890Z,3.17
2022-08-22T00:50:51.073Z,2.60
2022-08-22T00:53:41.588Z,2.88
2022-08-22T00:56:52.339Z,3.08
2022-08-22T01:00:00.561Z,3.47
2022-08-22T01:02:57.718Z,3.25
2022-08-22T01:05:48.150Z,3.25
2022-08-22T01:08:36.852Z,3.25
2022-08-22T01:11:26.820Z,3.38
2022-08-22T01:14:13.788Z,3.20
2022-08-22T01:17:19.365Z,3.30
2022-08-22T01:20:23.904Z,3.03
2022-08-22T01:23:46.869Z,3.40
2022-08-22T01:26:47.746Z,3.30
2022-08-22T01:29:56.017Z,3.42
2022-08-22T01:32:58.347Z,3.75
2022-08-22T01:35:52.156Z,3.70
2022-08-22T01:38:39.077Z,3.53
2022-08-22T01:41:44.984Z,3.47
2022-08-22T01:44:32.344Z,3.55
2022-08-22T01:47:07.208Z,3.05
2022-08-22T01:49:50.986Z,3.00
2022-08-22T01:52:38.001Z,3.25
2022-08-22T01:55:14.305Z,3.10
2022-08-22T01:57:57.701Z,2.90
2022-08-22T02:00:51.672Z,3.45
2022-08-22T02:03:29.401Z,3.05
2022-08-22T02:06:05.092Z,3.00
2022-08-22T02:08:45.877Z,2.70
2022-08-22T02:11:38.625Z,3.42
2022-08-22T02:14:21.173Z,2.80
2022-08-22T02:16:55.044Z,3.63
2022-08-22T02:19:34.398Z,2.85
2022-08-22T02:24:50.782Z,3.30
2022-08-22T02:27:32.153Z,2.95
2022-08-22T02:30:09.881Z,3.35
2022-08-22T02:33:01.903Z,3.38
2022-08-22T02:35:36.715Z,3.13
2022-08-22T02:38:21.151Z,3.78
2022-08-22T02:41:05.125Z,3.45
2022-08-22T02:43:43.688Z,3.50
2022-08-22T02:46:24.304Z,3.35
2022-08-22T02:49:03.657Z,3.50
2022-08-22T02:51:41.512Z,3.50
2022-08-22T02:54:17.369Z,3.10
2022-08-22T02:56:56.816Z,3.58
2022-08-22T02:59:36.619Z,3.30
2022-08-22T03:02:27.836Z,3.85
2022-08-22T03:05:01.010Z,4.53
2022-08-22T03:07:44.861Z,3.35
2022-08-22T03:11:21.245Z,4.25
2022-08-22T03:14:04.574Z,3.72
2022-08-22T03:16:39.150Z,4.00
2022-08-22T03:19:18.611Z,3.60
2022-08-22T03:21:57.415Z,3.10
2022-08-22T03:24:36.078Z,2.97
2022-08-22T03:27:12.104Z,3.50
2022-08-22T03:29:54.475Z,3.60
2022-08-22T03:32:25.291Z,3.33
2022-08-22T03:35:00.135Z,3.70
2022-08-22T03:37:40.530Z,3.90
2022-08-22T03:40:29.716Z,4.05
2022-08-22T03:43:22.580Z,3.28
2022-08-22T03:46:31.169Z,3.30
2022-08-22T03:49:28.128Z,4.00
2022-08-22T03:52:25.636Z,3.75
2022-08-22T03:55:26.637Z,3.97
2022-08-22T03:58:35.461Z,4.50
2022-08-22T04:01:40.432Z,3.38
2022-08-22T04:04:52.140Z,3.80
2022-08-22T04:08:06.016Z,4.10
2022-08-22T04:10:52.918Z,4.03
2022-08-22T04:13:57.915Z,3.30
2022-08-22T04:17:01.283Z,3.88
2022-08-22T04:19:55.466Z,3.78
2022-08-22T04:23:10.552Z,3.45
2022-08-22T04:25:43.228Z,4.53
2022-08-22T04:28:20.855Z,4.72
2022-08-22T04:30:57.465Z,4.20
2022-08-22T04:33:31.536Z,3.72
2022-08-22T04:36:06.439Z,4.25
2022-08-22T04:38:43.367Z,4.07
2022-08-22T04:41:16.616Z,4.25
2022-08-22T04:43:51.779Z,4.80
2022-08-22T04:46:36.726Z,5.75
2022-08-22T04:49:09.031Z,4.40
2022-08-22T04:51:43.716Z,3.88
2022-08-22T04:54:31.152Z,4.57
2022-08-22T04:57:15.572Z,3.95
2022-08-22T04:59:45.910Z,4.22
2022-08-22T05:02:23.129Z,3.70
2022-08-22T05:04:59.566Z,4.57
2022-08-22T05:07:36.103Z,4.65
2022-08-22T05:10:12.056Z,4.63
2022-08-22T05:12:47.200Z,4.50
2022-08-22T05:15:23.320Z,4.35
2022-08-22T05:17:55.211Z,4.18
2022-08-22T05:20:27.214Z,5.55
2022-08-22T05:23:02.818Z,4.28
2022-08-22T05:28:13.133Z,4.15
2022-08-22T05:30:44.858Z,4.35
2022-08-22T05:33:22.200Z,3.92
2022-08-22T05:35:58.029Z,4.13
2022-08-22T05:38:35.360Z,4.05
2022-08-22T05:41:10.158Z,3.95
2022-08-22T05:43:43.179Z,4.82
2022-08-22T05:46:22.053Z,4.53
2022-08-22T05:48:59.919Z,4.18
2022-08-22T05:51:36.115Z,4.60
2022-08-22T05:54:13.771Z,4.97
2022-08-22T05:56:48.098Z,4.22
2022-08-22T05:59:26.182Z,4.82
2022-08-22T06:02:03.809Z,5.47
2022-08-22T06:04:38.833Z,4.32
2022-08-22T06:07:15.986Z,6.38
2022-08-22T06:10:21.684Z,6.70
2022-08-22T06:13:01.347Z,5.75
2022-08-22T06:15:37.763Z,5.40
2022-08-22T06:18:13.526Z,5.47
2022-08-22T06:20:48.481Z,4.93
2022-08-22T06:23:21.876Z,5.30
2022-08-22T06:25:53.027Z,5.68
2022-08-22T06:28:28.098Z,4.70
2022-08-22T06:30:58.716Z,5.25
2022-08-22T06:33:30.554Z,4.90
2022-08-22T06:36:21.362Z,5.10
2022-08-22T06:39:09.045Z,3.70
2022-08-22T06:41:42.622Z,4.53
2022-08-22T06:44:21.120Z,4.13
2022-08-22T06:46:53.514Z,5.40
2022-08-22T06:49:26.783Z,4.68
2022-08-22T06:52:01.264Z,4.35
2022-08-22T06:54:36.264Z,5.80
2022-08-22T06:57:07.742Z,4.50
2022-08-22T06:59:40.459Z,4.72
2022-08-22T07:02:22.685Z,4.13
2022-08-22T07:04:53.056Z,3.70
2022-08-22T07:07:25.527Z,3.67
2022-08-22T07:09:57.592Z,3.40
2022-08-22T07:12:31.766Z,4.50
2022-08-22T07:15:12.203Z,3.97
2022-08-22T07:17:50.982Z,3.28
2022-08-22T07:20:28.077Z,4.50
2022-08-22T07:23:02.323Z,3.15
2022-08-22T07:25:32.852Z,3.33
2022-08-22T07:28:16.359Z,4.35
2022-08-22T07:31:02.525Z,3.55
2022-08-22T07:33:44.066Z,3.90
2022-08-22T07:36:31.806Z,3.25
2022-08-22T07:39:25.975Z,3.80
2022-08-22T07:42:09.772Z,3.45
2022-08-22T07:44:53.280Z,3.35
2022-08-22T07:47:28.729Z,3.83
2022-08-22T07:50:02.885Z,3.55
2022-08-22T07:52:38.356Z,2.92
2022-08-22T07:55:16.671Z,3.33
2022-08-22T07:57:53.067Z,4.10
2022-08-22T08:00:24.452Z,3.13
2022-08-22T08:02:58.379Z,2.88
2022-08-22T08:05:32.617Z,2.88
2022-08-22T08:08:05.413Z,3.22
2022-08-22T08:10:39.516Z,3.08
2022-08-22T08:13:13.356Z,2.83
2022-08-22T08:15:45.844Z,2.55
2022-08-22T08:18:22.045Z,2.80
2022-08-22T08:20:58.067Z,2.63
2022-08-22T08:23:31.527Z,3.15
2022-08-22T08:26:06.523Z,2.90
2022-08-22T08:28:41.291Z,2.53
2022-08-22T08:31:21.585Z,2.53
2022-08-22T08:33:58.971Z,2.65
2022-08-22T08:36:37.907Z,2.47
2022-08-22T08:39:18.014Z,2.90
2022-08-22T08:42:13.089Z,2.35
2022-08-22T08:45:08.582Z,2.58
2022-08-22T08:47:55.510Z,2.15
2022-08-22T08:50:43.909Z,2.40
2022-08-22T08:53:45.167Z,2.80
2022-08-22T08:56:25.393Z,2.90
2022-08-22T08:59:10.255Z,2.53
2022-08-22T09:02:06.696Z,2.72
2022-08-22T09:05:03.736Z,2.42
2022-08-22T09:08:03.030Z,2.95
2022-08-22T09:14:57.007Z,2.40
2022-08-22T09:18:00.700Z,2.42
2022-08-22T09:21:16.697Z,2.25
2022-08-22T09:24:39.366Z,3.45
2022-08-22T09:27:17.036Z,2.35
2022-08-22T09:29:54.496Z,2.30
2022-08-22T09:32:42.492Z,2.42
2022-08-22T09:35:23.736Z,2.03
2022-08-22T09:38:23.362Z,2.53
2022-08-22T09:41:02.217Z,3.08
2022-08-22T09:43:45.085Z,2.50
2022-08-22T09:46:31.589Z,2.53
2022-08-22T09:49:13.249Z,2.45
2022-08-22T09:51:54.736Z,2.50
2022-08-22T09:54:36.072Z,2.58
2022-08-22T09:57:24.427Z,1.98
2022-08-22T10:02:43.546Z,3.00
2022-08-22T10:05:35.167Z,2.60
2022-08-22T10:08:36.731Z,2.15
2022-08-22T10:11:28.727Z,3.00
2022-08-22T10:14:03.622Z,2.97
2022-08-22T10:17:00.679Z,2.30
2022-08-22T10:19:34.194Z,2.13
2022-08-22T10:22:29.892Z,2.30
2022-08-22T10:25:09.785Z,2.90
2022-08-22T10:28:05.513Z,4.40
2022-08-22T10:30:41.223Z,2.30
2022-08-22T10:33:17.892Z,2.55
2022-08-22T10:36:00.926Z,2.50
2022-08-22T10:38:46.189Z,2.17
2022-08-22T10:41:28.041Z,2.35
2022-08-22T10:44:06.294Z,3.17
2022-08-22T10:46:42.281Z,2.25
2022-08-22T10:49:20.741Z,2.30
2022-08-22T10:51:58.311Z,2.20
2022-08-22T10:54:47.254Z,1.95
2022-08-22T10:57:37.524Z,2.20
2022-08-22T11:00:15.094Z,2.75
2022-08-22T11:02:58.421Z,1.80
2022-08-22T11:05:41.242Z,1.85
2022-08-22T11:08:41.505Z,1.60
2022-08-22T11:11:43.365Z,2.20
2022-08-22T11:14:42.950Z,2.25
2022-08-22T11:17:32.319Z,2.40
2022-08-22T11:20:21.460Z,2.03
2022-08-22T11:23:08.136Z,1.95
2022-08-22T11:25:58.108Z,2.65
2022-08-22T11:28:39.209Z,1.77
2022-08-22T11:31:22.885Z,2.55
2022-08-22T11:33:58.978Z,2.45
2022-08-22T11:36:38.257Z,2.00
2022-08-22T11:39:22.918Z,2.65
2022-08-22T11:42:04.084Z,1.85
2022-08-22T11:44:50.532Z,2.10
2022-08-22T11:47:26.347Z,1.55
2022-08-22T11:50:03.479Z,1.65
2022-08-22T11:53:09.579Z,1.63
2022-08-22T11:55:44.674Z,2.17
2022-08-22T11:58:29.097Z,1.58
2022-08-22T12:01:04.278Z,1.98
2022-08-22T12:04:06.238Z,2.20
2022-08-22T12:07:11.964Z,2.20
2022-08-22T12:09:51.987Z,2.00
2022-08-22T12:12:31.013Z,1.90
2022-08-22T12:15:09.025Z,2.72
2022-08-22T12:21:02.089Z,1.88
2022-08-22T12:24:00.762Z,1.65
2022-08-22T12:26:47.148Z,2.17
2022-08-22T12:29:40.071Z,2.58
2022-08-22T12:32:49.992Z,2.13
2022-08-22T12:35:34.710Z,2.95
2022-08-22T12:38:28.602Z,1.85
2022-08-22T12:41:27.767Z,1.98
2022-08-22T12:44:07.321Z,2.17
2022-08-22T12:47:04.325Z,3.15
2022-08-22T12:49:57.115Z,2.40
2022-08-22T12:52:44.300Z,2.40
2022-08-22T12:55:48.795Z,2.85
2022-08-22T12:58:33.109Z,2.80
2022-08-22T13:01:06.885Z,2.33
2022-08-22T13:03:45.948Z,2.15
2022-08-22T13:06:53.072Z,2.35
2022-08-22T13:09:28.934Z,1.80
2022-08-22T13:12:05.056Z,2.30
2022-08-22T13:14:36.219Z,2.30
2022-08-22T13:17:25.105Z,1.80
2022-08-22T13:20:04.760Z,1.40
2022-08-22T13:22:39.011Z,2.15
2022-08-22T13:25:25.553Z,1.90
2022-08-22T13:28:03.427Z,2.60
2022-08-22T13:30:37.547Z,1.88
2022-08-22T13:33:10.274Z,1.85
2022-08-22T13:35:52.280Z,1.92
2022-08-22T13:38:26.648Z,1.65
2022-08-22T13:40:58.051Z,1.88
2022-08-22T13:43:31.164Z,1.27
2022-08-22T13:46:11.432Z,1.55
2022-08-22T13:48:49.920Z,2.92
2022-08-22T13:51:27.605Z,1.90
2022-08-22T13:54:10.861Z,1.55
2022-08-22T13:56:50.603Z,1.83
2022-08-22T14:02:35.296Z,1.67
2022-08-22T14:05:09.939Z,1.50
2022-08-22T14:07:52.961Z,1.60
2022-08-22T14:10:27.912Z,1.55
2022-08-22T14:13:32.656Z,1.35
2022-08-22T14:16:11.133Z,1.80
2022-08-22T14:18:50.850Z,1.92
2022-08-22T14:21:40.742Z,1.83
2022-08-22T14:24:26.877Z,1.60
2022-08-22T14:26:59.749Z,1.80
2022-08-22T14:32:35.099Z,1.70
2022-08-22T14:35:21.717Z,1.45
2022-08-22T14:38:21.623Z,1.67
2022-08-22T14:41:06.723Z,2.28
2022-08-22T14:43:51.641Z,1.90
2022-08-22T14:46:26.868Z,1.48
2022-08-22T14:49:25.326Z,1.60
2022-08-22T14:54:32.351Z,1.92
2022-08-22T14:57:10.091Z,1.40
2022-08-22T14:59:50.023Z,1.63
2022-08-22T15:02:28.780Z,1.95
2022-08-22T15:05:01.615Z,1.95
2022-08-22T15:07:34.645Z,1.60
2022-08-22T15:10:11.992Z,1.48
2022-08-22T15:12:51.470Z,1.40
2022-08-22T15:15:49.439Z,1.50
2022-08-22T15:18:36.925Z,1.65
2022-08-22T15:21:10.274Z,1.80
2022-08-22T15:23:47.032Z,1.38
2022-08-22T15:26:23.985Z,1.55
2022-08-22T15:29:05.832Z,1.70
2022-08-22T15:31:35.703Z,1.70
2022-08-22T15:34:14.103Z,1.35
2022-08-22T15:40:12.048Z,1.90
2022-08-22T15:42:45.198Z,1.25
2022-08-22T15:45:31.130Z,1.25
2022-08-22T15:48:06.073Z,1.40
2022-08-22T15:50:41.858Z,1.40
2022-08-22T15:53:19.509Z,1.63
2022-08-22T15:56:22.225Z,1.30
2022-08-22T15:59:14.082Z,1.23
2022-08-22T16:01:54.409Z,1.48
2022-08-22T16:04:39.238Z,1.90
2022-08-22T16:07:25.512Z,1.60
2022-08-22T16:09:58.138Z,1.75
2022-08-22T16:12:36.482Z,1.50
2022-08-22T16:15:28.956Z,1.30
2022-08-22T16:18:01.437Z,1.63
2022-08-22T16:20:55.392Z,2.67
2022-08-22T16:23:25.024Z,1.85
2022-08-22T16:26:16.661Z,1.75
2022-08-22T16:29:06.758Z,1.60
2022-08-22T16:31:39.326Z,2.00
2022-08-22T16:34:26.549Z,1.58
2022-08-22T16:37:44.570Z,1.60
2022-08-22T16:40:24.109Z,1.38
2022-08-22T16:43:12.955Z,1.67
2022-08-22T16:45:46.204Z,1.92
2022-08-22T16:48:27.935Z,1.50
2022-08-22T16:51:12.071Z,1.75
2022-08-22T16:54:04.282Z,1.60
2022-08-22T16:56:47.192Z,2.08
2022-08-22T16:59:40.532Z,1.55
2022-08-22T17:02:39.047Z,2.10
2022-08-22T17:05:29.467Z,1.80
2022-08-22T17:08:17.622Z,1.60
2022-08-22T17:11:00.278Z,2.42
2022-08-22T17:13:52.637Z,2.08
2022-08-22T17:16:52.116Z,1.70
2022-08-22T17:19:38.807Z,1.33
2022-08-22T17:22:20.804Z,1.75
2022-08-22T17:25:03.258Z,1.35
2022-08-22T17:27:40.017Z,1.60
2022-08-22T17:30:13.601Z,1.63
2022-08-22T17:33:00.215Z,1.40
2022-08-22T17:35:46.644Z,1.50
2022-08-22T17:38:31.371Z,1.60
2022-08-22T17:41:13.286Z,1.90
2022-08-22T17:43:56.925Z,1.45
2022-08-22T17:46:43.511Z,1.15
2022-08-22T17:49:29.855Z,2.15
2022-08-22T17:52:08.203Z,2.65
2022-08-22T17:54:42.284Z,1.50
2022-08-22T17:57:24.685Z,1.55
2022-08-22T18:00:00.637Z,1.67
2022-08-22T18:02:35.486Z,1.70
2022-08-22T18:05:12.448Z,1.90
2022-08-22T18:07:57.427Z,1.70
2022-08-22T18:10:39.046Z,1.52
2022-08-22T18:13:16.196Z,1.33
2022-08-22T18:15:51.872Z,1.50
2022-08-22T18:18:31.505Z,1.50
2022-08-22T18:21:06.259Z,1.85
2022-08-22T18:23:40.783Z,1.65
2022-08-22T18:26:27.067Z,1.83
2022-08-22T18:29:01.926Z,1.70
2022-08-22T18:31:41.066Z,2.47
2022-08-22T18:34:21.497Z,1.70
2022-08-22T18:36:57.576Z,1.80
2022-08-22T18:39:31.742Z,1.52
2022-08-22T18:42:09.991Z,1.80
2022-08-22T18:44:41.223Z,2.00
2022-08-22T18:47:16.584Z,1.60
2022-08-22T18:49:54.397Z,1.42
2022-08-22T18:52:36.836Z,2.00
2022-08-22T18:55:33.000Z,2.10
2022-08-22T18:58:28.287Z,1.80
2022-08-22T19:01:44.562Z,1.95
2022-08-22T19:04:49.871Z,2.00
2022-08-22T19:07:42.180Z,2.00
2022-08-22T19:10:34.468Z,2.20
2022-08-22T19:13:31.856Z,1.77
2022-08-22T19:16:31.618Z,1.73
2022-08-22T19:19:04.794Z,1.63
2022-08-22T19:21:52.982Z,1.73
2022-08-22T19:24:57.884Z,1.80
2022-08-22T19:27:35.132Z,2.05
2022-08-22T19:30:09.147Z,1.75
2022-08-22T19:33:02.135Z,1.95
2022-08-22T19:35:40.352Z,1.48
2022-08-22T19:38:12.320Z,1.95
2022-08-22T19:40:54.596Z,2.67
2022-08-22T19:43:35.413Z,1.50
2022-08-22T19:46:08.958Z,1.80
2022-08-22T19:48:49.835Z,2.10
2022-08-22T19:51:30.254Z,1.83
2022-08-22T19:54:16.384Z,1.83
2022-08-22T19:57:10.189Z,1.60
2022-08-22T19:59:53.120Z,2.55
2022-08-22T20:02:35.761Z,1.70
2022-08-22T20:05:30.732Z,2.40
2022-08-22T20:08:22.233Z,2.38
2022-08-22T20:11:07.560Z,1.95
2022-08-22T20:13:41.846Z,1.80
2022-08-22T20:16:17.447Z,1.77
2022-08-22T20:19:17.845Z,1.98
2022-08-22T20:21:59.997Z,2.28
2022-08-22T20:24:40.022Z,3.60
2022-08-22T20:27:15.836Z,2.05
2022-08-22T20:29:51.144Z,1.95
2022-08-22T20:32:23.138Z,2.40
2022-08-22T20:34:57.075Z,2.35
2022-08-22T20:37:56.156Z,2.22
2022-08-22T20:40:55.975Z,2.10
2022-08-22T20:43:31.794Z,2.10
2022-08-22T20:46:13.966Z,2.97
2022-08-22T20:48:46.177Z,2.10
2022-08-22T20:51:22.343Z,2.25
2022-08-22T20:53:55.603Z,2.38
2022-08-22T20:56:46.001Z,2.15
2022-08-22T20:59:36.889Z,2.17
2022-08-22T21:02:14.578Z,2.08
2022-08-22T21:04:50.542Z,1.88
2022-08-22T21:07:27.848Z,2.53
2022-08-22T21:10:22.635Z,2.00
2022-08-22T21:13:10.051Z,2.20
2022-08-22T21:15:41.420Z,2.03
2022-08-22T21:18:13.148Z,1.90
2022-08-22T21:20:42.787Z,2.35
2022-08-22T21:23:15.247Z,2.03
2022-08-22T21:25:58.531Z,2.08
2022-08-22T21:28:31.086Z,1.85
2022-08-22T21:31:01.830Z,2.10
2022-08-22T21:33:31.189Z,1.95
2022-08-22T21:38:30.934Z,2.58
2022-08-22T21:41:05.611Z,2.65
2022-08-22T21:43:38.020Z,2.13
2022-08-22T21:46:08.673Z,2.58
2022-08-22T21:48:43.766Z,2.88
2022-08-22T21:51:41.927Z,2.30
2022-08-22T21:54:40.922Z,2.43
2022-08-22T21:57:33.817Z,2.30
2022-08-22T22:00:03.736Z,2.42
2022-08-22T22:05:15.963Z,2.33
2022-08-22T22:07:48.674Z,2.65
2022-08-22T22:10:20.724Z,2.05
2022-08-22T22:12:54.291Z,2.25
2022-08-22T22:15:26.396Z,2.45
2022-08-22T22:17:56.568Z,2.88
2022-08-22T22:20:27.695Z,2.88
2022-08-22T22:22:57.388Z,2.28
2022-08-22T22:25:40.075Z,2.60
2022-08-22T22:28:16.544Z,2.28
2022-08-22T22:30:50.468Z,2.35
2022-08-22T22:33:20.224Z,2.47
2022-08-22T22:35:50.620Z,1.73
2022-08-22T22:38:23.913Z,2.05
2022-08-22T22:40:53.615Z,2.45
2022-08-22T22:43:24.492Z,2.53
2022-08-22T22:45:53.656Z,2.53
2022-08-22T22:48:24.277Z,2.97
2022-08-22T22:50:54.559Z,2.47
2022-08-22T22:53:38.236Z,2.10
2022-08-22T22:56:11.823Z,2.13
2022-08-22T22:58:43.077Z,2.13
2022-08-22T23:01:14.125Z,2.40
2022-08-22T23:03:44.268Z,2.60
2022-08-22T23:06:14.287Z,2.00
2022-08-22T23:08:43.417Z,2.17
2022-08-22T23:11:14.346Z,2.90
2022-08-22T23:13:45.026Z,2.22
2022-08-22T23:16:18.492Z,2.45
2022-08-22T23:18:47.591Z,2.17
2022-08-22T23:21:24.227Z,2.45
2022-08-22T23:23:55.302Z,2.42
2022-08-22T23:26:24.687Z,2.72
2022-08-22T23:28:55.319Z,2.63
2022-08-22T23:31:30.904Z,2.55
2022-08-22T23:34:04.916Z,2.15
2022-08-22T23:36:34.757Z,2.65
2022-08-22T23:39:05.803Z,2.10
2022-08-22T23:41:35.638Z,1.90
2022-08-22T23:44:08.914Z,3.28
2022-08-22T23:46:43.335Z,2.20
2022-08-22T23:49:13.404Z,1.95
2022-08-22T23:51:43.208Z,2.47
2022-08-22T23:54:12.382Z,2.03
2022-08-22T23:56:43.328Z,1.83
2022-08-22T23:59:16.129Z,2.05
